createdAt,value
2018-07-23T00:00:19.417Z,44.90
2018-07-23T00:02:48.281Z,44.60
2018-07-23T00:05:17.792Z,44.70
2018-07-23T00:07:46.942Z,44.60
2018-07-23T00:10:15.833Z,44.60
2018-07-23T00:12:44.675Z,44.70
2018-07-23T00:15:13.515Z,44.40
2018-07-23T00:17:42.951Z,44.40
2018-07-23T00:20:12.111Z,44.60
2018-07-23T00:22:40.964Z,44.30
2018-07-23T00:25:09.810Z,44.40
2018-07-23T00:27:38.659Z,44.40
2018-07-23T00:30:07.845Z,44.30
2018-07-23T00:32:37.138Z,44.30
2018-07-23T00:35:06.297Z,44.30
2018-07-23T00:37:35.411Z,44.30
2018-07-23T00:40:04.546Z,44.40
2018-07-23T00:42:33.404Z,44.40
2018-07-23T00:45:03.040Z,44.70
2018-07-23T00:47:31.927Z,45.00
2018-07-23T00:50:00.789Z,44.90
2018-07-23T00:52:29.654Z,44.90
2018-07-23T00:54:58.810Z,44.90
2018-07-23T00:57:27.684Z,44.90
2018-07-23T00:59:56.597Z,45.00
2018-07-23T01:02:25.981Z,45.20
2018-07-23T01:04:55.142Z,45.20
2018-07-23T01:07:24.292Z,45.30
2018-07-23T01:09:53.575Z,45.30
2018-07-23T01:12:29.071Z,45.30
2018-07-23T01:14:58.013Z,45.50
2018-07-23T01:17:26.842Z,45.50
2018-07-23T01:19:56.731Z,45.50
2018-07-23T01:22:26.675Z,45.50
2018-07-23T01:24:56.746Z,45.50
2018-07-23T01:27:26.708Z,45.50
2018-07-23T01:29:55.588Z,45.50
2018-07-23T01:32:24.714Z,45.60
2018-07-23T01:34:53.545Z,45.50
2018-07-23T01:37:22.643Z,45.60
2018-07-23T01:39:51.739Z,45.60
2018-07-23T01:42:20.622Z,45.60
2018-07-23T01:44:50.027Z,45.60
2018-07-23T01:47:18.874Z,45.50
2018-07-23T01:49:47.736Z,45.50
2018-07-23T01:52:16.654Z,45.30
2018-07-23T01:54:45.843Z,45.50
2018-07-23T01:57:14.987Z,45.50
2018-07-23T01:59:44.326Z,45.50
2018-07-23T02:02:13.436Z,45.50
2018-07-23T02:04:42.290Z,45.50
2018-07-23T02:07:11.171Z,45.60
2018-07-23T02:09:40.675Z,45.60
2018-07-23T02:12:09.531Z,45.50
2018-07-23T02:14:38.967Z,45.60
2018-07-23T02:17:08.434Z,45.50
2018-07-23T02:19:37.570Z,45.50
2018-07-23T02:22:06.767Z,45.50
2018-07-23T02:24:35.613Z,45.50
2018-07-23T02:27:04.579Z,45.50
2018-07-23T02:29:33.448Z,45.50
2018-07-23T02:32:02.482Z,45.50
2018-07-23T02:34:31.646Z,45.50
2018-07-23T02:37:01.036Z,45.60
2018-07-23T02:39:29.904Z,45.60
2018-07-23T02:41:58.875Z,45.30
2018-07-23T02:44:28.013Z,44.90
2018-07-23T02:46:56.892Z,45.00
2018-07-23T02:49:25.794Z,44.90
2018-07-23T02:51:54.988Z,45.00
2018-07-23T02:54:23.896Z,45.00
2018-07-23T02:56:53.080Z,45.20
2018-07-23T02:59:21.938Z,45.30
2018-07-23T03:01:51.028Z,45.50
2018-07-23T03:04:19.903Z,45.50
2018-07-23T03:06:48.782Z,45.60
2018-07-23T03:09:17.655Z,45.30
2018-07-23T03:11:46.783Z,45.50
2018-07-23T03:14:16.261Z,45.60
2018-07-23T03:16:45.145Z,45.80
2018-07-23T03:19:14.048Z,46.10
2018-07-23T03:21:43.227Z,46.10
2018-07-23T03:24:12.107Z,46.10
2018-07-23T03:26:41.879Z,46.10
2018-07-23T03:29:11.024Z,46.50
2018-07-23T03:31:39.892Z,46.50
2018-07-23T03:34:08.770Z,46.80
2018-07-23T03:36:37.671Z,46.70
2018-07-23T03:39:08.933Z,46.80
2018-07-23T03:41:37.866Z,47.00
2018-07-23T03:44:07.094Z,47.00
2018-07-23T03:46:35.960Z,46.70
2018-07-23T03:49:05.383Z,46.40
2018-07-23T03:51:34.810Z,46.40
2018-07-23T03:54:03.741Z,46.20
2018-07-23T03:56:32.920Z,46.10
2018-07-23T03:59:02.190Z,45.90
2018-07-23T04:01:31.055Z,45.80
2018-07-23T04:03:59.930Z,45.80
2018-07-23T04:06:28.792Z,45.80
2018-07-23T04:08:57.963Z,45.50
2018-07-23T04:11:27.306Z,45.50
2018-07-23T04:13:56.527Z,45.50
2018-07-23T04:16:25.390Z,45.20
2018-07-23T04:18:54.268Z,45.20
2018-07-23T04:21:23.157Z,45.20
2018-07-23T04:23:52.331Z,45.20
2018-07-23T04:26:21.249Z,45.20
2018-07-23T04:28:50.147Z,45.20
2018-07-23T04:31:19.311Z,45.30
2018-07-23T04:33:48.268Z,45.50
2018-07-23T04:36:17.150Z,45.30
2018-07-23T04:38:46.041Z,45.30
2018-07-23T04:41:14.902Z,45.60
2018-07-23T04:46:12.627Z,45.60
2018-07-23T04:48:41.538Z,45.30
2018-07-23T04:51:10.742Z,45.20
2018-07-23T04:53:39.616Z,45.20
2018-07-23T04:56:08.476Z,45.00
2018-07-23T04:58:37.365Z,45.00
2018-07-23T05:01:06.248Z,44.70
2018-07-23T05:03:35.114Z,44.90
2018-07-23T05:06:04.288Z,44.90
2018-07-23T05:08:33.296Z,44.60
2018-07-23T05:11:02.649Z,44.10
2018-07-23T05:13:31.758Z,44.30
2018-07-23T05:16:00.665Z,44.10
2018-07-23T05:18:29.474Z,44.00
2018-07-23T05:20:58.441Z,44.30
2018-07-23T05:23:27.664Z,44.10
2018-07-23T05:25:56.526Z,44.00
2018-07-23T05:28:26.732Z,44.00
2018-07-23T05:30:55.912Z,44.30
2018-07-23T05:33:24.755Z,44.40
2018-07-23T05:35:53.663Z,44.60
2018-07-23T05:38:22.555Z,44.70
2018-07-23T05:40:51.511Z,44.70
2018-07-23T05:43:20.482Z,44.60
2018-07-23T05:45:49.680Z,44.40
2018-07-23T05:48:18.549Z,44.10
2018-07-23T05:50:47.421Z,44.10
2018-07-23T05:53:16.571Z,44.40
2018-07-23T05:55:45.726Z,44.10
2018-07-23T05:58:14.878Z,44.00
2018-07-23T06:00:43.836Z,44.10
2018-07-23T06:03:13.315Z,44.00
2018-07-23T06:05:43.187Z,43.90
2018-07-23T06:08:12.075Z,43.60
2018-07-23T06:10:41.361Z,43.60
2018-07-23T06:13:10.504Z,43.40
2018-07-23T06:15:39.670Z,43.60
2018-07-23T06:18:08.583Z,43.30
2018-07-23T06:20:37.761Z,43.10
2018-07-23T06:23:06.971Z,43.60
2018-07-23T06:25:36.154Z,43.90
2018-07-23T06:28:05.591Z,43.40
2018-07-23T06:30:34.812Z,43.60
2018-07-23T06:33:03.955Z,43.60
2018-07-23T06:35:32.900Z,43.70
2018-07-23T06:38:01.747Z,43.40
2018-07-23T06:40:30.658Z,43.40
2018-07-23T06:42:59.712Z,43.60
2018-07-23T06:45:28.621Z,43.60
2018-07-23T06:47:57.743Z,43.30
2018-07-23T06:50:26.863Z,43.10
2018-07-23T06:52:55.726Z,43.00
2018-07-23T06:55:24.584Z,42.80
2018-07-23T06:57:53.759Z,42.70
2018-07-23T07:00:22.769Z,42.40
2018-07-23T07:02:51.649Z,41.90
2018-07-23T07:05:20.511Z,41.80
2018-07-23T07:07:49.370Z,41.80
2018-07-23T07:10:18.247Z,41.50
2018-07-23T07:12:47.167Z,41.20
2018-07-23T07:15:16.044Z,40.90
2018-07-23T07:17:45.238Z,40.30
2018-07-23T07:20:14.113Z,40.00
2018-07-23T07:22:43.863Z,40.00
2018-07-23T07:25:12.844Z,39.60
2018-07-23T07:27:41.780Z,39.30
2018-07-23T07:30:10.635Z,38.80
2018-07-23T07:32:39.902Z,38.20
2018-07-23T07:37:37.339Z,37.20
2018-07-23T07:40:06.227Z,36.30
2018-07-23T07:42:35.087Z,35.30
2018-07-23T07:45:04.527Z,34.70
2018-07-23T07:47:33.631Z,33.50
2018-07-23T07:50:02.779Z,32.00
2018-07-23T07:52:31.933Z,30.60
2018-07-23T07:55:05.571Z,29.30
2018-07-23T07:57:34.463Z,28.20
2018-07-23T08:00:03.381Z,27.20
2018-07-23T08:02:32.271Z,26.60
2018-07-23T08:05:01.182Z,26.20
2018-07-23T08:07:30.406Z,25.70
2018-07-23T08:12:28.042Z,24.70
2018-07-23T08:14:57.302Z,24.20
2018-07-23T08:17:26.390Z,23.70
2018-07-23T08:19:55.346Z,23.30
2018-07-23T08:22:24.180Z,23.10
2018-07-23T08:24:53.023Z,23.10
2018-07-23T08:27:21.899Z,23.10
2018-07-23T08:29:51.046Z,23.50
2018-07-23T08:32:19.996Z,23.70
2018-07-23T08:34:49.201Z,23.80
2018-07-23T08:37:18.117Z,23.90
2018-07-23T08:39:46.947Z,24.10
2018-07-23T08:42:15.807Z,24.40
2018-07-23T08:44:44.755Z,24.40
2018-07-23T08:47:13.627Z,24.50
2018-07-23T08:49:42.550Z,24.30
2018-07-23T08:52:11.654Z,24.60
2018-07-23T08:54:40.495Z,24.50
2018-07-23T08:57:09.361Z,24.40
2018-07-23T08:59:38.574Z,24.30
2018-07-23T09:02:07.750Z,23.80
2018-07-23T09:04:36.745Z,23.20
2018-07-23T09:07:05.651Z,23.10
2018-07-23T09:09:34.591Z,22.60
2018-07-23T09:12:03.683Z,21.70
2018-07-23T09:14:32.620Z,21.00
2018-07-23T09:17:01.530Z,20.00
2018-07-23T09:19:30.897Z,19.10
2018-07-23T09:21:59.996Z,18.60
2018-07-23T09:24:29.135Z,18.30
2018-07-23T09:26:58.362Z,17.90
2018-07-23T09:29:27.620Z,17.70
2018-07-23T09:31:56.887Z,17.40
2018-07-23T09:34:25.841Z,17.80
2018-07-23T09:36:55.154Z,17.80
2018-07-23T09:39:24.055Z,18.00
2018-07-23T09:41:52.922Z,18.50
2018-07-23T09:44:21.808Z,19.10
2018-07-23T09:46:50.753Z,19.70
2018-07-23T09:49:19.667Z,20.40
2018-07-23T09:51:48.710Z,20.50
2018-07-23T09:54:17.692Z,21.20
2018-07-23T09:56:46.558Z,20.90
2018-07-23T09:59:15.475Z,21.60
2018-07-23T10:01:44.598Z,21.60
2018-07-23T10:04:13.528Z,22.00
2018-07-23T10:06:42.383Z,22.50
2018-07-23T10:09:12.171Z,22.60
2018-07-23T10:11:41.022Z,22.50
2018-07-23T10:14:10.135Z,22.50
2018-07-23T10:16:39.040Z,22.60
2018-07-23T10:19:07.885Z,22.40
2018-07-23T10:21:36.767Z,22.40
2018-07-23T10:24:05.618Z,22.70
2018-07-23T10:26:35.069Z,22.70
2018-07-23T10:29:04.001Z,22.50
2018-07-23T10:31:32.923Z,22.60
2018-07-23T10:34:02.295Z,22.70
2018-07-23T10:36:31.183Z,22.30
2018-07-23T10:39:00.068Z,22.30
2018-07-23T10:41:29.067Z,21.80
2018-07-23T10:43:58.878Z,21.70
2018-07-23T10:46:27.779Z,22.20
2018-07-23T10:48:56.927Z,22.20
2018-07-23T10:51:26.101Z,21.80
2018-07-23T10:53:55.146Z,21.70
2018-07-23T10:56:25.543Z,21.80
2018-07-23T10:58:54.908Z,21.80
2018-07-23T11:01:23.803Z,21.60
2018-07-23T11:03:52.767Z,21.20
2018-07-23T11:06:21.762Z,21.40
2018-07-23T11:08:51.384Z,22.00
2018-07-23T11:11:20.537Z,21.70
2018-07-23T11:13:49.648Z,21.60
2018-07-23T11:16:18.817Z,21.40
2018-07-23T11:18:48.013Z,21.10
2018-07-23T11:21:16.985Z,21.00
2018-07-23T11:23:47.029Z,21.20
2018-07-23T11:26:15.968Z,21.10
2018-07-23T11:28:44.838Z,21.20
2018-07-23T11:31:13.952Z,21.20
2018-07-23T11:33:43.040Z,20.70
2018-07-23T11:36:12.075Z,20.10
2018-07-23T11:38:42.077Z,20.60
2018-07-23T11:41:11.091Z,20.70
2018-07-23T11:43:41.163Z,20.90
2018-07-23T11:46:24.421Z,20.50
2018-07-23T11:51:08.096Z,20.80
2018-07-23T11:53:37.044Z,20.60
2018-07-23T11:56:05.911Z,20.50
2018-07-23T11:58:34.773Z,20.50
2018-07-23T12:01:03.960Z,20.50
2018-07-23T12:03:33.159Z,20.60
2018-07-23T12:06:02.623Z,20.30
2018-07-23T12:08:31.906Z,20.50
2018-07-23T12:11:00.794Z,20.10
2018-07-23T12:13:29.690Z,20.20
2018-07-23T12:15:58.616Z,20.20
2018-07-23T12:18:27.495Z,20.10
2018-07-23T12:20:56.499Z,20.20
2018-07-23T12:23:25.340Z,20.40
2018-07-23T12:25:54.278Z,20.70
2018-07-23T12:28:23.147Z,20.50
2018-07-23T12:30:52.538Z,20.50
2018-07-23T12:33:21.782Z,20.50
2018-07-23T12:35:50.950Z,20.30
2018-07-23T12:38:19.856Z,20.40
2018-07-23T12:40:48.761Z,20.30
2018-07-23T12:43:17.634Z,20.70
2018-07-23T12:45:46.538Z,20.30
2018-07-23T12:48:15.722Z,20.20
2018-07-23T12:50:44.684Z,20.50
2018-07-23T12:53:13.726Z,20.60
2018-07-23T12:55:42.650Z,20.60
2018-07-23T12:58:11.535Z,20.30
2018-07-23T13:00:40.394Z,20.80
2018-07-23T13:03:09.259Z,20.70
2018-07-23T13:05:38.171Z,20.90
2018-07-23T13:08:07.064Z,20.60
2018-07-23T13:10:36.127Z,21.20
2018-07-23T13:13:05.786Z,21.10
2018-07-23T13:15:34.772Z,21.10
2018-07-23T13:18:03.675Z,21.10
2018-07-23T13:20:32.619Z,20.80
2018-07-23T13:23:01.812Z,20.30
2018-07-23T13:25:30.763Z,20.80
2018-07-23T13:27:59.933Z,20.80
2018-07-23T13:32:57.682Z,21.10
2018-07-23T13:35:26.905Z,20.90
2018-07-23T13:37:56.220Z,21.20
2018-07-23T13:40:25.830Z,21.20
2018-07-23T13:42:54.672Z,21.60
2018-07-23T13:45:23.515Z,21.80
2018-07-23T13:47:52.376Z,21.50
2018-07-23T13:50:21.235Z,21.60
2018-07-23T13:52:50.156Z,21.60
2018-07-23T13:55:19.359Z,21.40
2018-07-23T13:57:48.546Z,21.80
2018-07-23T14:00:17.719Z,22.00
2018-07-23T14:02:46.631Z,21.90
2018-07-23T14:05:15.540Z,22.10
2018-07-23T14:07:44.415Z,22.10
2018-07-23T14:10:13.302Z,21.70
2018-07-23T14:12:42.266Z,21.60
2018-07-23T14:15:11.496Z,21.90
2018-07-23T14:17:40.313Z,22.20
2018-07-23T14:20:09.449Z,22.30
2018-07-23T14:22:38.314Z,21.90
2018-07-23T14:25:07.518Z,22.10
2018-07-23T14:27:36.443Z,22.00
2018-07-23T14:30:05.589Z,22.00
2018-07-23T14:32:34.432Z,22.10
2018-07-23T14:35:03.354Z,22.30
2018-07-23T14:37:32.810Z,22.90
2018-07-23T14:40:01.807Z,22.60
2018-07-23T14:42:30.679Z,22.70
2018-07-23T14:45:00.291Z,22.70
2018-07-23T14:47:29.191Z,22.60
2018-07-23T14:49:58.024Z,22.80
2018-07-23T14:52:27.735Z,22.90
2018-07-23T14:54:56.639Z,22.90
2018-07-23T14:57:25.503Z,23.20
2018-07-23T14:59:54.464Z,23.60
2018-07-23T15:02:23.401Z,23.30
2018-07-23T15:07:21.479Z,23.40
2018-07-23T15:09:50.381Z,23.50
2018-07-23T15:14:48.339Z,23.90
2018-07-23T15:17:17.220Z,23.50
2018-07-23T15:19:46.116Z,23.50
2018-07-23T15:22:14.995Z,23.50
2018-07-23T15:24:43.904Z,23.60
2018-07-23T15:27:13.047Z,23.70
2018-07-23T15:29:41.951Z,23.80
2018-07-23T15:32:11.079Z,23.90
2018-07-23T15:34:40.021Z,23.70
2018-07-23T15:37:09.168Z,23.60
2018-07-23T15:39:38.378Z,24.00
2018-07-23T15:42:07.246Z,24.50
2018-07-23T15:44:36.405Z,24.00
2018-07-23T15:47:05.329Z,23.90
2018-07-23T15:49:34.208Z,23.90
2018-07-23T15:52:03.201Z,24.10
2018-07-23T15:54:32.148Z,24.20
2018-07-23T15:57:01.063Z,24.20
2018-07-23T15:59:30.402Z,24.30
2018-07-23T16:02:00.206Z,24.30
2018-07-23T16:04:29.496Z,24.80
2018-07-23T16:06:58.618Z,25.00
2018-07-23T16:09:27.472Z,24.70
2018-07-23T16:11:56.316Z,24.70
2018-07-23T16:14:26.097Z,24.90
2018-07-23T16:16:54.967Z,24.90
2018-07-23T16:19:24.296Z,25.00
2018-07-23T16:21:53.354Z,25.20
2018-07-23T16:24:22.267Z,25.40
2018-07-23T16:26:51.130Z,25.50
2018-07-23T16:29:20.366Z,25.70
2018-07-23T16:31:49.646Z,25.90
2018-07-23T16:34:18.650Z,26.20
2018-07-23T16:36:47.772Z,26.30
2018-07-23T16:39:16.965Z,25.90
2018-07-23T16:41:45.893Z,26.50
2018-07-23T16:44:14.750Z,26.40
2018-07-23T16:46:43.691Z,26.50
2018-07-23T16:49:12.783Z,26.60
2018-07-23T16:51:41.692Z,26.60
2018-07-23T16:54:10.627Z,26.70
2018-07-23T16:56:39.686Z,26.50
2018-07-23T16:59:08.834Z,26.70
2018-07-23T17:01:37.697Z,26.70
2018-07-23T17:04:06.625Z,26.80
2018-07-23T17:06:35.497Z,26.90
2018-07-23T17:09:07.378Z,26.90
2018-07-23T17:11:36.240Z,27.10
2018-07-23T17:14:05.122Z,27.20
2018-07-23T17:16:34.256Z,27.30
2018-07-23T17:19:03.634Z,27.50
2018-07-23T17:21:32.537Z,27.60
2018-07-23T17:24:01.604Z,27.60
2018-07-23T17:26:30.545Z,27.50
2018-07-23T17:28:59.456Z,27.30
2018-07-23T17:31:28.301Z,27.40
2018-07-23T17:33:57.267Z,27.50
2018-07-23T17:36:26.209Z,27.60
2018-07-23T17:38:55.127Z,27.60
2018-07-23T17:41:24.201Z,28.20
2018-07-23T17:43:53.414Z,28.90
2018-07-23T17:46:22.286Z,29.10
2018-07-23T17:48:51.529Z,29.40
2018-07-23T17:51:20.463Z,28.90
2018-07-23T17:53:49.848Z,29.00
2018-07-23T17:58:47.537Z,28.90
2018-07-23T18:01:16.439Z,29.20
2018-07-23T18:03:45.579Z,29.10
2018-07-23T18:06:14.462Z,28.60
2018-07-23T18:09:14.820Z,29.00
2018-07-23T18:11:43.871Z,29.00
2018-07-23T18:14:12.762Z,29.50
2018-07-23T18:16:41.706Z,28.70
2018-07-23T18:19:10.798Z,29.40
2018-07-23T18:21:39.678Z,29.10
2018-07-23T18:24:08.571Z,29.30
2018-07-23T18:26:37.437Z,29.10
2018-07-23T18:29:06.695Z,29.60
2018-07-23T18:31:36.035Z,28.70
2018-07-23T18:34:04.922Z,29.10
2018-07-23T18:36:34.073Z,29.10
2018-07-23T18:39:02.979Z,29.20
2018-07-23T18:41:32.111Z,29.60
2018-07-23T18:44:00.958Z,29.50
2018-07-23T18:46:29.818Z,29.20
2018-07-23T18:49:22.280Z,29.40
2018-07-23T18:51:54.020Z,29.10
2018-07-23T18:54:27.748Z,28.70
2018-07-23T18:56:59.915Z,29.00
2018-07-23T18:59:30.430Z,28.40
2018-07-23T19:02:04.356Z,28.50
2018-07-23T19:04:34.565Z,28.90
2018-07-23T19:07:04.060Z,29.00
2018-07-23T19:09:33.189Z,28.80
2018-07-23T19:12:02.056Z,28.60
2018-07-23T19:14:30.951Z,28.60
2018-07-23T19:17:00.799Z,29.00
2018-07-23T19:19:29.722Z,28.90
2018-07-23T19:21:58.649Z,29.00
2018-07-23T19:24:27.577Z,28.80
2018-07-23T19:26:56.458Z,28.60
2018-07-23T19:29:25.363Z,28.90
2018-07-23T19:31:54.254Z,29.00
2018-07-23T19:34:23.454Z,28.90
2018-07-23T19:36:52.375Z,28.90
2018-07-23T19:39:21.934Z,29.10
2018-07-23T19:41:50.838Z,28.90
2018-07-23T19:44:19.773Z,29.20
2018-07-23T19:46:48.653Z,28.70
2018-07-23T19:49:17.515Z,28.80
2018-07-23T19:51:47.012Z,28.70
2018-07-23T19:54:15.874Z,29.20
2018-07-23T19:56:44.787Z,28.80
2018-07-23T19:59:13.717Z,29.00
2018-07-23T20:01:42.609Z,29.00
2018-07-23T20:04:11.502Z,28.90
2018-07-23T20:06:43.797Z,29.10
2018-07-23T20:09:12.802Z,29.00
2018-07-23T20:11:41.644Z,29.10
2018-07-23T20:14:11.227Z,29.00
2018-07-23T20:16:40.424Z,28.80
2018-07-23T20:19:09.310Z,29.10
2018-07-23T20:21:38.612Z,29.10
2018-07-23T20:24:07.576Z,29.00
2018-07-23T20:26:36.431Z,29.20
2018-07-23T20:29:05.306Z,29.20
2018-07-23T20:31:34.452Z,29.30
2018-07-23T20:34:03.307Z,29.40
2018-07-23T20:39:00.950Z,29.50
2018-07-23T20:41:29.747Z,29.50
2018-07-23T20:43:58.944Z,29.60
2018-07-23T20:46:27.850Z,29.80
2018-07-23T20:48:56.812Z,29.90
2018-07-23T20:51:25.672Z,29.90
2018-07-23T20:53:54.539Z,30.40
2018-07-23T20:58:51.938Z,30.30
2018-07-23T21:01:20.819Z,30.60
2018-07-23T21:03:50.131Z,30.60
2018-07-23T21:06:19.014Z,30.70
2018-07-23T21:08:48.642Z,30.80
2018-07-23T21:11:17.764Z,31.10
2018-07-23T21:13:47.019Z,31.10
2018-07-23T21:16:15.869Z,31.10
2018-07-23T21:18:44.721Z,31.40
2018-07-23T21:21:13.710Z,31.40
2018-07-23T21:23:42.595Z,31.60
2018-07-23T21:26:11.462Z,31.60
2018-07-23T21:28:40.303Z,31.70
2018-07-23T21:31:09.432Z,31.90
2018-07-23T21:33:38.290Z,31.90
2018-07-23T21:36:07.171Z,32.00
2018-07-23T21:38:36.277Z,32.20
2018-07-23T21:41:05.386Z,32.20
2018-07-23T21:43:34.371Z,32.30
2018-07-23T21:46:03.264Z,32.30
2018-07-23T21:48:32.359Z,32.30
2018-07-23T21:51:01.195Z,32.50
2018-07-23T21:53:30.383Z,32.80
2018-07-23T21:55:59.520Z,32.80
2018-07-23T21:58:28.658Z,32.80
2018-07-23T22:00:57.874Z,32.80
2018-07-23T22:03:28.024Z,32.90
2018-07-23T22:05:57.872Z,33.10
2018-07-23T22:08:26.746Z,34.50
2018-07-23T22:10:55.706Z,37.80
2018-07-23T22:13:24.715Z,36.60
2018-07-23T22:15:53.831Z,37.10
2018-07-23T22:18:22.671Z,36.00
2018-07-23T22:20:51.724Z,35.40
2018-07-23T22:23:20.609Z,35.30
2018-07-23T22:25:50.984Z,35.30
2018-07-23T22:28:21.524Z,35.60
2018-07-23T22:30:51.421Z,35.40
2018-07-23T22:33:20.380Z,35.10
2018-07-23T22:35:49.246Z,34.40
2018-07-23T22:38:18.408Z,34.40
2018-07-23T22:40:47.282Z,34.40
2018-07-23T22:43:17.907Z,34.70
2018-07-23T22:45:48.514Z,34.40
2018-07-23T22:48:17.798Z,33.80
2018-07-23T22:50:47.661Z,33.50
2018-07-23T22:53:17.755Z,34.10
2018-07-23T22:55:48.040Z,34.20
2018-07-23T22:58:17.816Z,34.20
2018-07-23T23:00:48.028Z,34.70
2018-07-23T23:03:18.603Z,35.10
2018-07-23T23:05:49.223Z,35.40
2018-07-23T23:08:18.440Z,35.60
2018-07-23T23:10:48.918Z,35.90
2018-07-23T23:13:18.310Z,36.30
2018-07-23T23:15:47.217Z,36.50
2018-07-23T23:18:16.376Z,36.50
2018-07-23T23:20:45.266Z,36.60
2018-07-23T23:23:14.127Z,36.20
2018-07-23T23:25:43.798Z,36.60
2018-07-23T23:28:12.652Z,36.60
2018-07-23T23:30:41.522Z,36.90
2018-07-23T23:33:10.952Z,36.80
2018-07-23T23:35:39.847Z,36.60
2018-07-23T23:40:38.031Z,36.90
2018-07-23T23:43:07.134Z,37.10
2018-07-23T23:48:04.948Z,37.10
2018-07-23T23:50:34.346Z,37.20
2018-07-23T23:53:03.234Z,37.20
2018-07-23T23:55:32.074Z,37.20
2018-07-23T23:58:01.190Z,37.20
